createdAt,value
2023-01-29T00:02:00.682Z,100886.47
2023-01-29T00:04:29.997Z,100889.31
2023-01-29T00:06:58.023Z,100890.44
2023-01-29T00:09:26.009Z,100889.59
2023-01-29T00:11:54.057Z,100876.94
2023-01-29T00:14:22.873Z,100872.41
2023-01-29T00:16:50.899Z,100882.06
2023-01-29T00:19:19.574Z,100875.81
2023-01-29T00:21:48.984Z,100876.50
2023-01-29T00:24:16.946Z,100881.78
2023-01-29T00:26:44.995Z,100883.50
2023-01-29T00:29:13.319Z,100885.19
2023-01-29T00:31:41.463Z,100885.19
2023-01-29T00:34:09.451Z,100889.59
2023-01-29T00:36:38.031Z,100884.91
2023-01-29T00:39:10.795Z,100880.34
2023-01-29T00:41:57.647Z,100882.19
2023-01-29T00:44:42.770Z,100874.94
2023-01-29T00:47:30.908Z,100874.94
2023-01-29T00:49:59.157Z,100887.59
2023-01-29T00:52:29.363Z,100861.75
2023-01-29T00:55:00.513Z,100854.50
2023-01-29T00:57:30.998Z,100882.03
2023-01-29T00:59:59.064Z,100877.50
2023-01-29T01:02:44.711Z,100855.06
2023-01-29T01:05:17.997Z,100876.63
2023-01-29T01:07:47.658Z,100868.53
2023-01-29T01:10:22.243Z,100855.91
2023-01-29T01:12:53.551Z,100851.34
2023-01-29T01:15:22.259Z,100856.75
2023-01-29T01:17:53.764Z,100853.06
2023-01-29T01:20:22.246Z,100851.34
2023-01-29T01:22:50.776Z,100845.09
2023-01-29T01:25:20.103Z,100847.66
2023-01-29T01:27:48.485Z,100842.09
2023-01-29T01:30:18.019Z,100837.41
2023-01-29T01:32:46.554Z,100830.31
2023-01-29T01:35:14.876Z,100832.00
2023-01-29T01:37:43.182Z,100827.63
2023-01-29T01:40:18.093Z,100820.66
2023-01-29T01:42:49.871Z,100815.41
2023-01-29T01:45:24.919Z,100820.09
2023-01-29T01:47:58.083Z,100814.97
2023-01-29T01:50:30.606Z,100823.38
2023-01-29T01:53:02.395Z,100814.56
2023-01-29T01:55:34.313Z,100803.94
2023-01-29T01:58:08.506Z,100788.03
2023-01-29T02:00:36.656Z,100790.16
2023-01-29T02:03:23.477Z,100793.56
2023-01-29T02:06:11.558Z,100788.75
2023-01-29T02:09:05.858Z,100767.44
2023-01-29T02:11:37.311Z,100763.31
2023-01-29T02:14:07.030Z,100760.94
2023-01-29T02:16:36.862Z,100761.06
2023-01-29T02:19:09.403Z,100750.56
2023-01-29T02:21:58.557Z,100754.97
2023-01-29T02:24:54.483Z,100752.41
2023-01-29T02:27:32.520Z,100762.50
2023-01-29T02:30:07.998Z,100748.03
2023-01-29T02:32:54.714Z,100764.34
2023-01-29T02:35:32.007Z,100750.28
2023-01-29T02:38:11.924Z,100736.78
2023-01-29T02:40:45.157Z,100727.13
2023-01-29T02:43:28.748Z,100713.78
2023-01-29T02:46:05.044Z,100730.97
2023-01-29T02:48:43.319Z,100720.88
2023-01-29T02:51:19.964Z,100713.50
2023-01-29T02:53:58.739Z,100719.47
2023-01-29T02:56:31.361Z,100716.06
2023-01-29T02:59:06.838Z,100709.81
2023-01-29T03:01:40.738Z,100715.19
2023-01-29T03:04:13.639Z,100709.25
2023-01-29T03:06:46.236Z,100708.69
2023-01-29T03:09:18.906Z,100693.94
2023-01-29T03:11:53.230Z,100703.59
2023-01-29T03:14:47.595Z,100703.91
2023-01-29T03:17:19.621Z,100691.41
2023-01-29T03:19:48.317Z,100689.84
2023-01-29T03:22:23.627Z,100687.44
2023-01-29T03:25:13.417Z,100690.97
2023-01-29T03:28:04.402Z,100686.72
2023-01-29T03:31:01.598Z,100680.47
2023-01-29T03:33:46.696Z,100682.31
2023-01-29T03:36:19.625Z,100682.19
2023-01-29T03:38:47.862Z,100678.75
2023-01-29T03:41:24.268Z,100674.09
2023-01-29T03:44:01.614Z,100675.94
2023-01-29T03:46:35.578Z,100684.16
2023-01-29T03:49:13.461Z,100681.47
2023-01-29T03:51:51.295Z,100684.03
2023-01-29T03:54:27.381Z,100677.78
2023-01-29T03:57:03.711Z,100670.66
2023-01-29T03:59:40.772Z,100667.16
2023-01-29T04:02:28.085Z,100663.03
2023-01-29T04:05:10.981Z,100662.91
2023-01-29T04:07:51.972Z,100663.19
2023-01-29T04:10:23.911Z,100654.34
2023-01-29T04:12:56.541Z,100657.06
2023-01-29T04:15:27.137Z,100657.22
2023-01-29T04:17:57.419Z,100657.06
2023-01-29T04:20:37.040Z,100640.91
2023-01-29T04:23:07.513Z,100644.88
2023-01-29T04:25:44.518Z,100644.19
2023-01-29T04:28:19.663Z,100637.63
2023-01-29T04:30:55.391Z,100637.22
2023-01-29T04:33:33.899Z,100637.22
2023-01-29T04:36:18.887Z,100637.22
2023-01-29T04:38:57.519Z,100628.28
2023-01-29T04:41:33.175Z,100619.91
2023-01-29T04:44:09.730Z,100611.94
2023-01-29T04:46:48.222Z,100604.72
2023-01-29T04:49:26.322Z,100595.78
2023-01-29T04:52:02.804Z,100589.56
2023-01-29T04:54:42.362Z,100582.28
2023-01-29T04:57:17.467Z,100582.28
2023-01-29T04:59:49.875Z,100573.38
2023-01-29T05:02:19.534Z,100562.59
2023-01-29T05:04:49.146Z,100560.88
2023-01-29T05:07:19.555Z,100549.41
2023-01-29T05:09:49.478Z,100541.44
2023-01-29T05:12:18.979Z,100541.44
2023-01-29T05:14:48.571Z,100535.19
2023-01-29T05:17:19.551Z,100542.47
2023-01-29T05:19:48.339Z,100531.69
2023-01-29T05:22:22.647Z,100515.50
2023-01-29T05:24:50.790Z,100513.09
2023-01-29T05:27:38.904Z,100502.16
2023-01-29T05:30:08.198Z,100504.31
2023-01-29T05:32:36.143Z,100509.16
2023-01-29T05:35:04.298Z,100493.81
2023-01-29T05:37:33.698Z,100489.13
2023-01-29T05:40:01.698Z,100490.84
2023-01-29T05:42:29.811Z,100484.44
2023-01-29T05:44:57.890Z,100478.19
2023-01-29T05:47:25.895Z,100470.25
2023-01-29T05:49:53.911Z,100462.19
2023-01-29T05:52:21.849Z,100450.41
2023-01-29T05:54:51.130Z,100452.78
2023-01-29T05:57:19.137Z,100449.25
2023-01-29T05:59:47.157Z,100434.78
2023-01-29T06:02:15.087Z,100438.31
2023-01-29T06:04:43.035Z,100438.31
2023-01-29T06:07:11.047Z,100442.00
2023-01-29T06:09:39.141Z,100447.56
2023-01-29T06:12:08.711Z,100436.78
2023-01-29T06:14:36.784Z,100438.78
2023-01-29T06:17:04.946Z,100438.09
2023-01-29T06:19:32.927Z,100446.00
2023-01-29T06:22:00.872Z,100462.19
2023-01-29T06:24:28.928Z,100469.41
2023-01-29T06:26:56.911Z,100465.03
2023-01-29T06:29:26.383Z,100456.09
2023-01-29T06:31:54.498Z,100453.41
2023-01-29T06:34:22.665Z,100455.25
2023-01-29T06:36:50.690Z,100443.75
2023-01-29T06:39:18.671Z,100434.81
2023-01-29T06:41:46.747Z,100434.09
2023-01-29T06:44:14.791Z,100433.06
2023-01-29T06:46:44.081Z,100428.44
2023-01-29T06:49:12.029Z,100428.28
2023-01-29T06:51:40.070Z,100423.16
2023-01-29T06:54:08.700Z,100422.22
2023-01-29T06:56:36.769Z,100401.59
2023-01-29T06:59:04.808Z,100394.53
2023-01-29T07:01:36.334Z,100389.97
2023-01-29T07:04:06.308Z,100388.72
2023-01-29T07:06:34.523Z,100388.72
2023-01-29T07:09:02.612Z,100388.03
2023-01-29T07:11:30.552Z,100375.53
2023-01-29T07:13:58.573Z,100374.66
2023-01-29T07:16:27.172Z,100371.09
2023-01-29T07:18:55.210Z,100363.75
2023-01-29T07:21:24.681Z,100358.38
2023-01-29T07:23:52.607Z,100364.75
2023-01-29T07:26:20.770Z,100357.63
2023-01-29T07:28:48.808Z,100345.00
2023-01-29T07:31:16.984Z,100354.09
2023-01-29T07:33:45.415Z,100344.31
2023-01-29T07:36:14.438Z,100343.63
2023-01-29T07:38:43.770Z,100340.06
2023-01-29T07:41:12.826Z,100336.34
2023-01-29T07:43:40.881Z,100337.38
2023-01-29T07:46:09.096Z,100343.75
2023-01-29T07:48:37.331Z,100336.53
2023-01-29T07:51:05.467Z,100324.75
2023-01-29T07:53:33.424Z,100315.66
2023-01-29T07:56:03.602Z,100329.97
2023-01-29T07:58:31.549Z,100320.19
2023-01-29T08:00:59.524Z,100304.88
2023-01-29T08:03:27.480Z,100297.81
2023-01-29T08:05:55.404Z,100287.84
2023-01-29T08:08:23.419Z,100285.03
2023-01-29T08:10:51.358Z,100274.25
2023-01-29T08:13:20.681Z,100276.94
2023-01-29T08:15:48.855Z,100261.75
2023-01-29T08:18:16.775Z,100251.84
2023-01-29T08:20:44.776Z,100250.97
2023-01-29T08:23:15.603Z,100255.22
2023-01-29T08:25:43.678Z,100242.75
2023-01-29T08:28:12.393Z,100241.06
2023-01-29T08:30:44.097Z,100240.06
2023-01-29T08:33:12.193Z,100246.19
2023-01-29T08:35:41.249Z,100238.22
2023-01-29T08:38:10.566Z,100234.69
2023-01-29T08:40:38.796Z,100241.06
2023-01-29T08:43:09.618Z,100233.81
2023-01-29T08:45:40.403Z,100231.13
2023-01-29T08:48:10.557Z,100208.72
2023-01-29T08:50:38.856Z,100204.31
2023-01-29T08:53:08.989Z,100193.41
2023-01-29T08:55:38.223Z,100185.78
2023-01-29T08:58:06.399Z,100194.25
2023-01-29T09:00:35.221Z,100188.88
2023-01-29T09:03:03.837Z,100194.09
2023-01-29T09:05:33.678Z,100209.13
2023-01-29T09:08:01.727Z,100198.53
2023-01-29T09:10:29.765Z,100197.38
2023-01-29T09:12:57.747Z,100189.97
2023-01-29T09:15:26.021Z,100182.72
2023-01-29T09:17:54.042Z,100183.59
2023-01-29T09:20:22.356Z,100194.38
2023-01-29T09:22:53.704Z,100191.66
2023-01-29T09:25:21.738Z,100189.78
2023-01-29T09:27:49.644Z,100194.19
2023-01-29T09:30:18.675Z,100180.03
2023-01-29T09:32:54.799Z,100172.94
2023-01-29T09:35:23.456Z,100165.72
2023-01-29T09:37:53.012Z,100164.72
2023-01-29T09:40:27.137Z,100158.31
2023-01-29T09:43:02.968Z,100153.94
2023-01-29T09:45:31.620Z,100147.69
2023-01-29T09:48:01.780Z,100141.28
2023-01-29T09:50:33.639Z,100134.91
2023-01-29T09:53:12.796Z,100143.84
2023-01-29T09:55:47.098Z,100136.63
2023-01-29T09:58:20.624Z,100132.03
2023-01-29T10:00:58.358Z,100133.56
2023-01-29T10:03:49.973Z,100128.34
2023-01-29T10:06:27.809Z,100113.50
2023-01-29T10:09:22.535Z,100099.88
2023-01-29T10:11:59.332Z,100113.34
2023-01-29T10:14:38.396Z,100104.94
2023-01-29T10:17:22.131Z,100098.03
2023-01-29T10:20:03.545Z,100083.38
2023-01-29T10:22:56.937Z,100083.22
2023-01-29T10:25:26.435Z,100080.53
2023-01-29T10:27:58.444Z,100082.91
2023-01-29T10:30:34.199Z,100065.56
2023-01-29T10:33:05.698Z,100061.03
2023-01-29T10:35:36.778Z,100039.03
2023-01-29T10:38:24.755Z,100055.66
2023-01-29T10:41:08.744Z,100054.78
2023-01-29T10:43:42.990Z,100044.19
2023-01-29T10:46:23.848Z,100036.78
2023-01-29T10:49:02.868Z,100024.16
2023-01-29T10:51:53.622Z,100010.81
2023-01-29T10:54:50.406Z,100011.66
2023-01-29T10:57:32.635Z,100007.28
2023-01-29T11:00:13.314Z,99995.66
2023-01-29T11:02:46.431Z,100000.19
2023-01-29T11:05:22.111Z,99990.94
2023-01-29T11:07:57.802Z,99986.41
2023-01-29T11:10:26.770Z,99990.94
2023-01-29T11:12:57.426Z,99991.81
2023-01-29T11:15:29.756Z,99970.56
2023-01-29T11:18:10.659Z,99966.38
2023-01-29T11:20:38.639Z,99950.34
2023-01-29T11:23:07.692Z,99949.16
2023-01-29T11:25:36.037Z,99941.09
2023-01-29T11:28:07.229Z,99938.06
2023-01-29T11:30:38.660Z,99926.28
2023-01-29T11:33:19.381Z,99917.03
2023-01-29T11:35:47.722Z,99903.75
2023-01-29T11:38:22.811Z,99900.69
2023-01-29T11:40:51.003Z,99890.94
2023-01-29T11:43:31.939Z,99887.22
2023-01-29T11:46:02.959Z,99883.69
2023-01-29T11:48:42.120Z,99867.34
2023-01-29T11:51:12.427Z,99858.59
2023-01-29T11:53:43.061Z,99854.72
2023-01-29T11:56:24.666Z,99842.22
2023-01-29T11:58:57.645Z,99829.91
2023-01-29T12:01:33.859Z,99821.84
2023-01-29T12:04:02.646Z,99819.13
2023-01-29T12:06:36.580Z,99820.50
2023-01-29T12:09:11.808Z,99814.06
2023-01-29T12:11:39.865Z,99793.00
2023-01-29T12:14:30.276Z,99782.84
2023-01-29T12:17:02.359Z,99782.97
2023-01-29T12:19:36.067Z,99760.03
2023-01-29T12:22:08.016Z,99776.56
2023-01-29T12:24:42.846Z,99762.59
2023-01-29T12:27:20.664Z,99747.09
2023-01-29T12:29:57.713Z,99739.84
2023-01-29T12:32:33.717Z,99739.38
2023-01-29T12:35:07.313Z,99715.47
2023-01-29T12:37:41.484Z,99705.69
2023-01-29T12:40:15.273Z,99708.44
2023-01-29T12:42:47.386Z,99705.06
2023-01-29T12:45:20.510Z,99678.38
2023-01-29T12:47:53.119Z,99661.72
2023-01-29T12:50:25.440Z,99689.06
2023-01-29T12:52:57.593Z,99686.88
2023-01-29T12:55:29.123Z,99686.03
2023-01-29T12:57:59.761Z,99680.63
2023-01-29T13:00:33.469Z,99689.41
2023-01-29T13:03:09.854Z,99687.88
2023-01-29T13:05:42.496Z,99682.16
2023-01-29T13:08:15.675Z,99678.28
2023-01-29T13:10:48.052Z,99670.38
2023-01-29T13:13:20.457Z,99659.91
2023-01-29T13:15:50.146Z,99657.41
2023-01-29T13:18:41.309Z,99641.53
2023-01-29T13:21:14.954Z,99635.16
2023-01-29T13:23:47.077Z,99624.38
2023-01-29T13:26:19.375Z,99614.06
2023-01-29T13:28:48.301Z,99611.56
2023-01-29T13:31:30.150Z,99612.53
2023-01-29T13:34:09.803Z,99606.16
2023-01-29T13:36:42.885Z,99599.38
2023-01-29T13:39:23.791Z,99596.00
2023-01-29T13:41:53.413Z,99592.78
2023-01-29T13:44:25.517Z,99583.50
2023-01-29T13:46:59.212Z,99587.06
2023-01-29T13:49:31.968Z,99584.34
2023-01-29T13:52:15.659Z,99572.72
2023-01-29T13:54:53.536Z,99568.81
2023-01-29T13:57:49.509Z,99550.78
2023-01-29T14:00:50.755Z,99547.44
2023-01-29T14:04:05.937Z,99527.84
2023-01-29T14:06:44.080Z,99516.06
2023-01-29T14:09:35.015Z,99506.28
2023-01-29T14:12:03.655Z,99512.69
2023-01-29T14:15:02.572Z,99506.97
2023-01-29T14:17:31.073Z,99496.31
2023-01-29T14:20:04.410Z,99491.44
2023-01-29T14:22:34.717Z,99486.88
2023-01-29T14:25:06.036Z,99484.19
2023-01-29T14:27:35.740Z,99484.53
2023-01-29T14:30:09.711Z,99474.03
2023-01-29T14:32:40.802Z,99467.81
2023-01-29T14:35:21.078Z,99464.94
2023-01-29T14:37:52.014Z,99459.53
2023-01-29T14:40:24.951Z,99448.91
2023-01-29T14:42:59.520Z,99438.13
2023-01-29T14:45:29.651Z,99438.13
2023-01-29T14:48:34.378Z,99427.16
2023-01-29T14:51:11.395Z,99427.16
2023-01-29T14:53:53.263Z,99426.97
2023-01-29T14:56:29.087Z,99411.78
2023-01-29T14:59:05.859Z,99413.47
2023-01-29T15:01:38.704Z,99393.59
2023-01-29T15:04:15.645Z,99377.22
2023-01-29T15:06:47.605Z,99373.31
2023-01-29T15:11:55.368Z,99349.69
2023-01-29T15:14:33.452Z,99337.69
2023-01-29T15:17:18.793Z,99317.28
2023-01-29T15:19:49.396Z,99327.84
2023-01-29T15:22:20.408Z,99316.22
2023-01-29T15:25:03.282Z,99311.97
2023-01-29T15:27:32.140Z,99307.38
2023-01-29T15:30:02.987Z,99294.91
2023-01-29T15:32:34.272Z,99286.97
2023-01-29T15:35:08.801Z,99288.69
2023-01-29T15:37:38.464Z,99283.09
2023-01-29T15:40:15.644Z,99276.50
2023-01-29T15:42:46.711Z,99228.03
2023-01-29T15:45:27.385Z,99268.22
2023-01-29T15:47:58.685Z,99255.44
2023-01-29T15:50:26.821Z,99247.91
2023-01-29T15:52:59.513Z,99242.31
2023-01-29T15:55:28.839Z,99241.66
2023-01-29T15:57:57.587Z,99227.16
2023-01-29T16:00:28.570Z,99207.22
2023-01-29T16:02:57.374Z,99205.56
2023-01-29T16:05:29.897Z,99197.47
2023-01-29T16:08:00.828Z,99191.44
2023-01-29T16:10:31.452Z,99188.72
2023-01-29T16:13:00.417Z,99181.28
2023-01-29T16:15:34.543Z,99177.19
2023-01-29T16:18:05.541Z,99155.50
2023-01-29T16:20:39.686Z,99136.53
2023-01-29T16:23:18.598Z,99132.13
2023-01-29T16:25:47.097Z,99115.03
2023-01-29T16:28:15.138Z,99111.56
2023-01-29T16:30:43.234Z,99115.31
2023-01-29T16:33:17.081Z,99097.25
2023-01-29T16:35:51.953Z,99103.00
2023-01-29T16:38:28.371Z,99091.19
2023-01-29T16:41:16.324Z,99070.34
2023-01-29T16:43:50.105Z,99068.94
2023-01-29T16:46:26.113Z,99037.22
2023-01-29T16:48:55.210Z,99050.44
2023-01-29T16:51:27.031Z,99045.03
2023-01-29T16:54:02.073Z,99045.03
2023-01-29T16:56:34.030Z,99038.16
2023-01-29T16:59:05.576Z,99034.44
2023-01-29T17:01:36.148Z,99034.63
2023-01-29T17:04:12.333Z,99023.66
2023-01-29T17:06:43.940Z,99020.47
2023-01-29T17:09:22.491Z,99015.06
2023-01-29T17:11:56.719Z,98991.47
2023-01-29T17:14:25.867Z,98989.78
2023-01-29T17:16:56.358Z,98985.41
2023-01-29T17:19:25.853Z,98980.19
2023-01-29T17:21:54.324Z,98973.13
2023-01-29T17:24:23.767Z,98967.56
2023-01-29T17:26:51.984Z,98960.28
2023-01-29T17:29:24.384Z,98938.69
2023-01-29T17:31:52.744Z,98935.19
2023-01-29T17:34:20.706Z,98922.69
2023-01-29T17:36:48.938Z,98910.91
2023-01-29T17:39:20.337Z,98912.75
2023-01-29T17:41:52.210Z,98907.53
2023-01-29T17:44:20.614Z,98884.78
2023-01-29T17:46:49.458Z,98902.81
2023-01-29T17:49:24.888Z,98888.25
2023-01-29T17:51:53.610Z,98885.13
2023-01-29T17:54:22.280Z,98863.28
2023-01-29T17:56:52.317Z,98859.16
2023-01-29T17:59:22.626Z,98849.59
2023-01-29T18:01:51.147Z,98843.19
2023-01-29T18:04:19.589Z,98830.06
2023-01-29T18:06:50.109Z,98809.34
2023-01-29T18:09:20.462Z,98819.66
2023-01-29T18:11:49.319Z,98817.56
2023-01-29T18:14:18.679Z,98830.25
2023-01-29T18:16:47.305Z,98824.03
2023-01-29T18:19:19.898Z,98797.81
2023-01-29T18:21:48.426Z,98797.25
2023-01-29T18:24:16.566Z,98787.28
2023-01-29T18:26:44.786Z,98787.28
2023-01-29T18:29:12.924Z,98777.13
2023-01-29T18:31:42.328Z,98751.22
2023-01-29T18:34:10.322Z,98751.00
2023-01-29T18:36:38.431Z,98745.81
2023-01-29T18:39:06.464Z,98742.28
2023-01-29T18:41:35.050Z,98725.84
2023-01-29T18:44:03.107Z,98735.66
2023-01-29T18:46:31.085Z,98735.44
2023-01-29T18:49:00.475Z,98712.53
2023-01-29T18:51:28.446Z,98725.50
2023-01-29T18:53:56.466Z,98738.59
2023-01-29T18:56:25.345Z,98726.34
2023-01-29T18:58:56.298Z,98717.44
2023-01-29T19:01:25.062Z,98691.41
2023-01-29T19:03:53.964Z,98695.06
2023-01-29T19:06:23.407Z,98673.25
2023-01-29T19:08:51.536Z,98670.38
2023-01-29T19:11:19.605Z,98659.59
2023-01-29T19:13:48.014Z,98645.06
2023-01-29T19:16:15.941Z,98628.47
2023-01-29T19:18:43.931Z,98625.78
2023-01-29T19:21:14.020Z,98632.63
2023-01-29T19:23:44.899Z,98626.78
2023-01-29T19:26:13.510Z,98621.00
2023-01-29T19:28:41.854Z,98607.50
2023-01-29T19:31:10.829Z,98616.22
2023-01-29T19:33:39.205Z,98623.09
2023-01-29T19:36:07.868Z,98613.34
2023-01-29T19:38:38.579Z,98608.13
2023-01-29T19:41:08.076Z,98610.25
2023-01-29T19:43:38.189Z,98597.56
2023-01-29T19:46:07.434Z,98589.47
2023-01-29T19:48:35.518Z,98578.50
2023-01-29T19:51:06.881Z,98576.19
2023-01-29T19:53:35.021Z,98561.03
2023-01-29T19:56:04.572Z,98548.81
2023-01-29T19:58:34.414Z,98524.94
2023-01-29T20:01:03.842Z,98532.59
2023-01-29T20:03:32.061Z,98538.44
2023-01-29T20:06:04.228Z,98501.03
2023-01-29T20:08:33.205Z,98512.47
2023-01-29T20:11:01.444Z,98498.56
2023-01-29T20:13:29.784Z,98487.16
2023-01-29T20:16:02.907Z,98473.88
2023-01-29T20:18:31.521Z,98469.06
2023-01-29T20:21:00.194Z,98447.47
2023-01-29T20:23:37.678Z,98450.41
2023-01-29T20:26:07.565Z,98447.06
2023-01-29T20:28:36.156Z,98459.09
2023-01-29T20:31:06.760Z,98450.78
2023-01-29T20:33:36.986Z,98437.47
2023-01-29T20:36:08.379Z,98454.53
2023-01-29T20:38:36.594Z,98444.97
2023-01-29T20:41:06.425Z,98454.09
2023-01-29T20:43:34.725Z,98452.44
2023-01-29T20:46:03.970Z,98444.97
2023-01-29T20:48:33.977Z,98434.59
2023-01-29T20:51:06.636Z,98447.06
2023-01-29T20:53:34.906Z,98446.25
2023-01-29T20:56:04.436Z,98419.25
2023-01-29T20:58:32.862Z,98421.75
2023-01-29T21:01:01.252Z,98428.81
2023-01-29T21:03:31.026Z,98420.31
2023-01-29T21:06:00.287Z,98433.81
2023-01-29T21:08:28.245Z,98411.59
2023-01-29T21:10:56.275Z,98401.81
2023-01-29T21:13:24.454Z,98392.50
2023-01-29T21:15:52.483Z,98374.00
2023-01-29T21:18:20.591Z,98374.84
2023-01-29T21:20:50.824Z,98378.38
2023-01-29T21:23:20.441Z,98372.16
2023-01-29T21:25:48.430Z,98367.78
2023-01-29T21:28:17.166Z,98364.06
2023-01-29T21:30:45.356Z,98367.78
2023-01-29T21:33:13.414Z,98361.56
2023-01-29T21:35:41.421Z,98355.34
2023-01-29T21:38:09.451Z,98337.03
2023-01-29T21:40:38.877Z,98347.03
2023-01-29T21:43:11.794Z,98325.25
2023-01-29T21:45:41.012Z,98323.38
2023-01-29T21:48:09.596Z,98325.84
2023-01-29T21:50:38.241Z,98315.91
2023-01-29T21:53:06.507Z,98321.50
2023-01-29T21:55:34.730Z,98321.09
2023-01-29T21:58:04.350Z,98310.94
2023-01-29T22:00:32.629Z,98302.84
2023-01-29T22:03:00.617Z,98301.19
2023-01-29T22:05:30.226Z,98295.16
2023-01-29T22:07:58.338Z,98278.78
2023-01-29T22:10:27.700Z,98270.69
2023-01-29T22:12:55.951Z,98274.81
2023-01-29T22:15:25.315Z,98258.41
2023-01-29T22:17:53.254Z,98242.44
2023-01-29T22:20:29.669Z,98238.69
2023-01-29T22:23:00.388Z,98230.59
2023-01-29T22:25:28.832Z,98211.09
2023-01-29T22:27:56.930Z,98210.06
2023-01-29T22:30:26.482Z,98195.75
2023-01-29T22:32:54.509Z,98188.91
2023-01-29T22:35:22.619Z,98191.38
2023-01-29T22:37:50.604Z,98189.91
2023-01-29T22:40:19.186Z,98170.00
2023-01-29T22:42:47.412Z,98164.84
2023-01-29T22:45:15.565Z,98158.19
2023-01-29T22:47:44.871Z,98143.03
2023-01-29T22:50:14.074Z,98123.53
2023-01-29T22:52:42.798Z,98108.97
2023-01-29T22:55:12.536Z,98100.88
2023-01-29T22:57:41.118Z,98083.25
2023-01-29T23:00:11.992Z,98085.75
2023-01-29T23:02:40.079Z,98086.59
2023-01-29T23:05:09.904Z,98091.75
2023-01-29T23:07:38.217Z,98077.66
2023-01-29T23:10:07.563Z,98075.34
2023-01-29T23:12:35.493Z,98056.09
2023-01-29T23:15:03.619Z,98051.91
2023-01-29T23:17:31.566Z,98045.47
2023-01-29T23:19:59.558Z,98039.25
2023-01-29T23:22:28.982Z,98033.63
2023-01-29T23:24:57.031Z,98035.53
2023-01-29T23:27:24.077Z,98014.75
2023-01-29T23:29:52.022Z,98025.34
2023-01-29T23:32:22.002Z,97969.75
2023-01-29T23:34:50.075Z,97992.53
2023-01-29T23:37:17.995Z,97986.72
2023-01-29T23:39:47.370Z,97937.03
2023-01-29T23:42:15.271Z,97971.16
2023-01-29T23:44:43.411Z,97949.38
2023-01-29T23:47:11.616Z,97937.13
2023-01-29T23:49:39.610Z,97932.16
2023-01-29T23:52:07.798Z,97953.75
2023-01-29T23:54:35.872Z,97964.72
2023-01-29T23:57:05.193Z,97951.06
2023-01-29T23:59:33.141Z,97938.81
